sensor_id;sensor_type;location;lat;lon;timestamp;P1;durP1;ratioP1;P2;durP2;ratioP2
16731;SDS011;8484;50.904;9.192;2023-02-26T00:01:36;3.10;;;2.50;;
16731;SDS011;8484;50.904;9.192;2023-02-26T00:04:05;3.00;;;2.80;;
16731;SDS011;8484;50.904;9.192;2023-02-26T00:06:33;4.83;;;2.87;;
16731;SDS011;8484;50.904;9.192;2023-02-26T00:09:02;5.80;;;3.10;;
16731;SDS011;8484;50.904;9.192;2023-02-26T00:11:29;3.20;;;2.80;;
16731;SDS011;8484;50.904;9.192;2023-02-26T00:13:56;2.87;;;2.67;;
16731;SDS011;8484;50.904;9.192;2023-02-26T00:16:25;3.80;;;2.90;;
16731;SDS011;8484;50.904;9.192;2023-02-26T00:18:54;3.87;;;2.50;;
16731;SDS011;8484;50.904;9.192;2023-02-26T00:21:24;5.20;;;3.23;;
16731;SDS011;8484;50.904;9.192;2023-02-26T00:23:52;4.37;;;2.87;;
16731;SDS011;8484;50.904;9.192;2023-02-26T00:26:19;2.80;;;2.50;;
16731;SDS011;8484;50.904;9.192;2023-02-26T00:28:46;3.83;;;2.53;;
16731;SDS011;8484;50.904;9.192;2023-02-26T00:31:14;4.17;;;2.50;;
16731;SDS011;8484;50.904;9.192;2023-02-26T00:33:42;3.10;;;2.50;;
16731;SDS011;8484;50.904;9.192;2023-02-26T00:36:12;2.90;;;2.70;;
16731;SDS011;8484;50.904;9.192;2023-02-26T00:38:48;2.93;;;2.70;;
16731;SDS011;8484;50.904;9.192;2023-02-26T00:41:24;3.00;;;2.77;;
16731;SDS011;8484;50.904;9.192;2023-02-26T00:43:51;2.93;;;2.73;;
16731;SDS011;8484;50.904;9.192;2023-02-26T00:46:20;3.80;;;2.90;;
16731;SDS011;8484;50.904;9.192;2023-02-26T00:48:54;4.07;;;2.93;;
16731;SDS011;8484;50.904;9.192;2023-02-26T00:51:30;5.37;;;2.90;;
16731;SDS011;8484;50.904;9.192;2023-02-26T00:54:04;3.20;;;2.90;;
16731;SDS011;8484;50.904;9.192;2023-02-26T00:56:38;3.90;;;2.93;;
16731;SDS011;8484;50.904;9.192;2023-02-26T00:59:05;3.67;;;2.90;;
16731;SDS011;8484;50.904;9.192;2023-02-26T01:01:32;3.00;;;2.80;;
16731;SDS011;8484;50.904;9.192;2023-02-26T01:03:59;2.90;;;2.70;;
16731;SDS011;8484;50.904;9.192;2023-02-26T01:06:27;8.80;;;3.03;;
16731;SDS011;8484;50.904;9.192;2023-02-26T01:08:58;2.90;;;2.60;;
16731;SDS011;8484;50.904;9.192;2023-02-26T01:11:32;2.60;;;2.50;;
16731;SDS011;8484;50.904;9.192;2023-02-26T01:14:00;3.17;;;2.77;;
16731;SDS011;8484;50.904;9.192;2023-02-26T01:16:28;2.83;;;2.63;;
16731;SDS011;8484;50.904;9.192;2023-02-26T01:18:58;2.90;;;2.70;;
16731;SDS011;8484;50.904;9.192;2023-02-26T01:21:30;3.03;;;2.70;;
16731;SDS011;8484;50.904;9.192;2023-02-26T01:24:02;2.70;;;2.50;;
16731;SDS011;8484;50.904;9.192;2023-02-26T01:26:34;3.10;;;2.70;;
16731;SDS011;8484;50.904;9.192;2023-02-26T01:29:01;3.83;;;3.03;;
16731;SDS011;8484;50.904;9.192;2023-02-26T01:31:33;3.07;;;2.77;;
16731;SDS011;8484;50.904;9.192;2023-02-26T01:34:08;3.73;;;2.97;;
16731;SDS011;8484;50.904;9.192;2023-02-26T01:36:42;3.00;;;2.80;;
16731;SDS011;8484;50.904;9.192;2023-02-26T01:39:14;3.13;;;2.83;;
16731;SDS011;8484;50.904;9.192;2023-02-26T01:41:50;3.93;;;2.73;;
16731;SDS011;8484;50.904;9.192;2023-02-26T01:44:21;3.63;;;2.90;;
16731;SDS011;8484;50.904;9.192;2023-02-26T01:47:01;4.43;;;2.80;;
16731;SDS011;8484;50.904;9.192;2023-02-26T01:49:32;3.53;;;2.87;;
16731;SDS011;8484;50.904;9.192;2023-02-26T01:51:59;5.27;;;3.03;;
16731;SDS011;8484;50.904;9.192;2023-02-26T01:54:28;3.77;;;3.10;;
16731;SDS011;8484;50.904;9.192;2023-02-26T01:56:58;3.60;;;2.90;;
16731;SDS011;8484;50.904;9.192;2023-02-26T01:59:29;2.90;;;2.67;;
16731;SDS011;8484;50.904;9.192;2023-02-26T02:01:56;4.30;;;3.00;;
16731;SDS011;8484;50.904;9.192;2023-02-26T02:04:25;3.47;;;2.90;;
16731;SDS011;8484;50.904;9.192;2023-02-26T02:06:52;3.00;;;2.70;;
16731;SDS011;8484;50.904;9.192;2023-02-26T02:09:19;2.97;;;2.77;;
16731;SDS011;8484;50.904;9.192;2023-02-26T02:11:50;3.67;;;2.70;;
16731;SDS011;8484;50.904;9.192;2023-02-26T02:14:28;4.23;;;2.83;;
16731;SDS011;8484;50.904;9.192;2023-02-26T02:17:09;3.57;;;3.10;;
16731;SDS011;8484;50.904;9.192;2023-02-26T02:19:46;2.80;;;2.60;;
16731;SDS011;8484;50.904;9.192;2023-02-26T02:22:31;2.90;;;2.70;;
16731;SDS011;8484;50.904;9.192;2023-02-26T02:25:22;3.97;;;2.97;;
16731;SDS011;8484;50.904;9.192;2023-02-26T02:28:12;4.30;;;3.20;;
16731;SDS011;8484;50.904;9.192;2023-02-26T02:30:54;3.50;;;3.20;;
16731;SDS011;8484;50.904;9.192;2023-02-26T02:33:27;6.07;;;3.50;;
16731;SDS011;8484;50.904;9.192;2023-02-26T02:35:59;3.10;;;2.87;;
16731;SDS011;8484;50.904;9.192;2023-02-26T02:38:31;5.93;;;2.90;;
16731;SDS011;8484;50.904;9.192;2023-02-26T02:41:03;3.30;;;3.07;;
16731;SDS011;8484;50.904;9.192;2023-02-26T02:43:32;3.40;;;3.07;;
16731;SDS011;8484;50.904;9.192;2023-02-26T02:46:04;3.00;;;2.80;;
16731;SDS011;8484;50.904;9.192;2023-02-26T02:48:33;4.47;;;2.80;;
16731;SDS011;8484;50.904;9.192;2023-02-26T02:51:05;2.80;;;2.60;;
16731;SDS011;8484;50.904;9.192;2023-02-26T02:53:39;3.57;;;2.97;;
16731;SDS011;8484;50.904;9.192;2023-02-26T02:56:11;3.40;;;2.90;;
16731;SDS011;8484;50.904;9.192;2023-02-26T02:58:41;3.00;;;2.80;;
16731;SDS011;8484;50.904;9.192;2023-02-26T03:01:14;3.53;;;2.80;;
16731;SDS011;8484;50.904;9.192;2023-02-26T03:03:46;4.60;;;2.80;;
16731;SDS011;8484;50.904;9.192;2023-02-26T03:06:20;3.30;;;2.80;;
16731;SDS011;8484;50.904;9.192;2023-02-26T03:08:47;3.70;;;2.70;;
16731;SDS011;8484;50.904;9.192;2023-02-26T03:11:14;3.27;;;3.00;;
16731;SDS011;8484;50.904;9.192;2023-02-26T03:13:42;3.53;;;2.40;;
16731;SDS011;8484;50.904;9.192;2023-02-26T03:16:13;2.63;;;2.40;;
16731;SDS011;8484;50.904;9.192;2023-02-26T03:18:49;2.60;;;2.40;;
16731;SDS011;8484;50.904;9.192;2023-02-26T03:21:25;3.77;;;2.80;;
16731;SDS011;8484;50.904;9.192;2023-02-26T03:23:58;7.77;;;3.00;;
16731;SDS011;8484;50.904;9.192;2023-02-26T03:26:30;3.23;;;2.50;;
16731;SDS011;8484;50.904;9.192;2023-02-26T03:29:07;2.73;;;2.53;;
16731;SDS011;8484;50.904;9.192;2023-02-26T03:31:40;2.83;;;2.63;;
16731;SDS011;8484;50.904;9.192;2023-02-26T03:34:16;4.33;;;2.60;;
16731;SDS011;8484;50.904;9.192;2023-02-26T03:36:50;3.07;;;2.70;;
16731;SDS011;8484;50.904;9.192;2023-02-26T03:39:22;3.00;;;2.70;;
16731;SDS011;8484;50.904;9.192;2023-02-26T03:41:54;2.57;;;2.43;;
16731;SDS011;8484;50.904;9.192;2023-02-26T03:44:26;2.70;;;2.50;;
16731;SDS011;8484;50.904;9.192;2023-02-26T03:46:58;2.73;;;2.53;;
16731;SDS011;8484;50.904;9.192;2023-02-26T03:49:31;4.03;;;2.60;;
16731;SDS011;8484;50.904;9.192;2023-02-26T03:52:02;3.47;;;2.97;;
16731;SDS011;8484;50.904;9.192;2023-02-26T03:54:31;2.80;;;2.60;;
16731;SDS011;8484;50.904;9.192;2023-02-26T03:57:00;3.20;;;2.50;;
16731;SDS011;8484;50.904;9.192;2023-02-26T03:59:28;2.83;;;2.60;;
16731;SDS011;8484;50.904;9.192;2023-02-26T04:01:57;3.20;;;2.60;;
16731;SDS011;8484;50.904;9.192;2023-02-26T04:04:29;3.27;;;2.57;;
16731;SDS011;8484;50.904;9.192;2023-02-26T04:07:00;2.97;;;2.40;;
16731;SDS011;8484;50.904;9.192;2023-02-26T04:09:27;3.00;;;2.80;;
16731;SDS011;8484;50.904;9.192;2023-02-26T04:11:54;2.37;;;2.23;;
16731;SDS011;8484;50.904;9.192;2023-02-26T04:14:23;2.33;;;2.23;;
16731;SDS011;8484;50.904;9.192;2023-02-26T04:16:50;2.73;;;2.53;;
16731;SDS011;8484;50.904;9.192;2023-02-26T04:19:18;4.60;;;2.93;;
16731;SDS011;8484;50.904;9.192;2023-02-26T04:21:45;4.60;;;2.70;;
16731;SDS011;8484;50.904;9.192;2023-02-26T04:24:12;2.70;;;2.50;;
16731;SDS011;8484;50.904;9.192;2023-02-26T04:26:39;3.43;;;2.33;;
16731;SDS011;8484;50.904;9.192;2023-02-26T04:29:06;5.17;;;2.47;;
16731;SDS011;8484;50.904;9.192;2023-02-26T04:31:32;4.07;;;2.90;;
16731;SDS011;8484;50.904;9.192;2023-02-26T04:33:59;3.23;;;2.57;;
16731;SDS011;8484;50.904;9.192;2023-02-26T04:36:28;2.50;;;2.30;;
16731;SDS011;8484;50.904;9.192;2023-02-26T04:38:55;2.50;;;2.30;;
16731;SDS011;8484;50.904;9.192;2023-02-26T04:41:22;3.27;;;2.40;;
16731;SDS011;8484;50.904;9.192;2023-02-26T04:43:49;4.60;;;2.50;;
16731;SDS011;8484;50.904;9.192;2023-02-26T04:46:15;2.90;;;2.67;;
16731;SDS011;8484;50.904;9.192;2023-02-26T04:48:42;3.10;;;2.80;;
16731;SDS011;8484;50.904;9.192;2023-02-26T04:51:09;4.53;;;2.83;;
16731;SDS011;8484;50.904;9.192;2023-02-26T04:53:37;3.17;;;2.70;;
16731;SDS011;8484;50.904;9.192;2023-02-26T04:56:04;3.57;;;2.73;;
16731;SDS011;8484;50.904;9.192;2023-02-26T04:58:32;3.03;;;2.73;;
16731;SDS011;8484;50.904;9.192;2023-02-26T05:00:59;3.37;;;2.83;;
16731;SDS011;8484;50.904;9.192;2023-02-26T05:03:25;2.73;;;2.53;;
16731;SDS011;8484;50.904;9.192;2023-02-26T05:05:52;3.77;;;3.00;;
16731;SDS011;8484;50.904;9.192;2023-02-26T05:08:19;3.50;;;3.20;;
16731;SDS011;8484;50.904;9.192;2023-02-26T05:10:47;4.20;;;3.13;;
16731;SDS011;8484;50.904;9.192;2023-02-26T05:13:15;3.20;;;2.90;;
16731;SDS011;8484;50.904;9.192;2023-02-26T05:15:42;3.60;;;3.20;;
16731;SDS011;8484;50.904;9.192;2023-02-26T05:18:09;3.57;;;3.27;;
16731;SDS011;8484;50.904;9.192;2023-02-26T05:20:36;3.37;;;3.07;;
16731;SDS011;8484;50.904;9.192;2023-02-26T05:23:03;3.30;;;3.00;;
16731;SDS011;8484;50.904;9.192;2023-02-26T05:25:30;4.87;;;2.97;;
16731;SDS011;8484;50.904;9.192;2023-02-26T05:27:58;3.30;;;3.00;;
16731;SDS011;8484;50.904;9.192;2023-02-26T05:30:25;3.00;;;2.80;;
16731;SDS011;8484;50.904;9.192;2023-02-26T05:32:52;3.80;;;3.00;;
16731;SDS011;8484;50.904;9.192;2023-02-26T05:35:19;3.30;;;3.00;;
16731;SDS011;8484;50.904;9.192;2023-02-26T05:37:46;3.20;;;2.70;;
16731;SDS011;8484;50.904;9.192;2023-02-26T05:40:13;3.40;;;3.10;;
16731;SDS011;8484;50.904;9.192;2023-02-26T05:42:40;2.80;;;2.60;;
16731;SDS011;8484;50.904;9.192;2023-02-26T05:45:08;4.73;;;2.77;;
16731;SDS011;8484;50.904;9.192;2023-02-26T05:47:36;3.23;;;2.93;;
16731;SDS011;8484;50.904;9.192;2023-02-26T05:50:03;3.43;;;3.13;;
16731;SDS011;8484;50.904;9.192;2023-02-26T05:52:31;3.87;;;3.03;;
16731;SDS011;8484;50.904;9.192;2023-02-26T05:54:58;3.93;;;2.90;;
16731;SDS011;8484;50.904;9.192;2023-02-26T05:57:25;3.40;;;3.10;;
16731;SDS011;8484;50.904;9.192;2023-02-26T05:59:52;5.00;;;3.20;;
16731;SDS011;8484;50.904;9.192;2023-02-26T06:02:20;3.20;;;2.93;;
16731;SDS011;8484;50.904;9.192;2023-02-26T06:04:47;4.00;;;3.03;;
16731;SDS011;8484;50.904;9.192;2023-02-26T06:07:14;6.97;;;2.90;;
16731;SDS011;8484;50.904;9.192;2023-02-26T06:09:41;3.73;;;3.10;;
16731;SDS011;8484;50.904;9.192;2023-02-26T06:12:08;4.00;;;3.00;;
16731;SDS011;8484;50.904;9.192;2023-02-26T06:14:35;3.70;;;3.17;;
16731;SDS011;8484;50.904;9.192;2023-02-26T06:17:02;3.00;;;2.80;;
16731;SDS011;8484;50.904;9.192;2023-02-26T06:19:32;3.40;;;3.10;;
16731;SDS011;8484;50.904;9.192;2023-02-26T06:21:59;5.13;;;3.40;;
16731;SDS011;8484;50.904;9.192;2023-02-26T06:24:26;3.20;;;3.00;;
16731;SDS011;8484;50.904;9.192;2023-02-26T06:26:53;3.20;;;3.00;;
16731;SDS011;8484;50.904;9.192;2023-02-26T06:29:20;3.77;;;3.20;;
16731;SDS011;8484;50.904;9.192;2023-02-26T06:31:47;4.30;;;3.17;;
16731;SDS011;8484;50.904;9.192;2023-02-26T06:34:14;2.90;;;2.70;;
16731;SDS011;8484;50.904;9.192;2023-02-26T06:36:43;3.03;;;2.83;;
16731;SDS011;8484;50.904;9.192;2023-02-26T06:39:10;4.03;;;3.30;;
16731;SDS011;8484;50.904;9.192;2023-02-26T06:41:37;3.50;;;3.20;;
16731;SDS011;8484;50.904;9.192;2023-02-26T06:44:04;3.43;;;3.13;;
16731;SDS011;8484;50.904;9.192;2023-02-26T06:46:31;3.47;;;3.17;;
16731;SDS011;8484;50.904;9.192;2023-02-26T06:48:58;4.97;;;3.60;;
16731;SDS011;8484;50.904;9.192;2023-02-26T06:51:25;4.60;;;3.53;;
16731;SDS011;8484;50.904;9.192;2023-02-26T06:53:53;5.07;;;3.17;;
16731;SDS011;8484;50.904;9.192;2023-02-26T06:56:20;4.10;;;3.70;;
16731;SDS011;8484;50.904;9.192;2023-02-26T06:58:47;4.13;;;3.80;;
16731;SDS011;8484;50.904;9.192;2023-02-26T07:01:14;3.40;;;3.10;;
16731;SDS011;8484;50.904;9.192;2023-02-26T07:03:41;3.73;;;3.43;;
16731;SDS011;8484;50.904;9.192;2023-02-26T07:06:08;3.13;;;2.83;;
16731;SDS011;8484;50.904;9.192;2023-02-26T07:08:37;2.73;;;2.53;;
16731;SDS011;8484;50.904;9.192;2023-02-26T07:11:06;3.00;;;2.70;;
16731;SDS011;8484;50.904;9.192;2023-02-26T07:13:34;2.87;;;2.67;;
16731;SDS011;8484;50.904;9.192;2023-02-26T07:16:01;5.40;;;4.37;;
16731;SDS011;8484;50.904;9.192;2023-02-26T07:18:28;3.17;;;2.87;;
16731;SDS011;8484;50.904;9.192;2023-02-26T07:20:55;3.20;;;3.00;;
16731;SDS011;8484;50.904;9.192;2023-02-26T07:23:21;2.90;;;2.70;;
16731;SDS011;8484;50.904;9.192;2023-02-26T07:25:48;3.17;;;2.97;;
16731;SDS011;8484;50.904;9.192;2023-02-26T07:28:17;3.33;;;2.83;;
16731;SDS011;8484;50.904;9.192;2023-02-26T07:30:44;3.00;;;2.70;;
16731;SDS011;8484;50.904;9.192;2023-02-26T07:33:11;3.07;;;2.87;;
16731;SDS011;8484;50.904;9.192;2023-02-26T07:35:38;2.57;;;2.40;;
16731;SDS011;8484;50.904;9.192;2023-02-26T07:38:05;4.07;;;2.73;;
16731;SDS011;8484;50.904;9.192;2023-02-26T07:40:32;3.23;;;2.93;;
16731;SDS011;8484;50.904;9.192;2023-02-26T07:42:59;2.77;;;2.57;;
16731;SDS011;8484;50.904;9.192;2023-02-26T07:45:27;2.97;;;2.60;;
16731;SDS011;8484;50.904;9.192;2023-02-26T07:47:54;2.77;;;2.53;;
16731;SDS011;8484;50.904;9.192;2023-02-26T07:50:21;2.70;;;2.50;;
16731;SDS011;8484;50.904;9.192;2023-02-26T07:52:49;4.00;;;2.90;;
16731;SDS011;8484;50.904;9.192;2023-02-26T07:55:17;3.43;;;2.67;;
16731;SDS011;8484;50.904;9.192;2023-02-26T07:57:44;2.80;;;2.60;;
16731;SDS011;8484;50.904;9.192;2023-02-26T08:00:12;2.70;;;2.50;;
16731;SDS011;8484;50.904;9.192;2023-02-26T08:02:42;2.60;;;2.40;;
16731;SDS011;8484;50.904;9.192;2023-02-26T08:05:09;2.30;;;2.20;;
16731;SDS011;8484;50.904;9.192;2023-02-26T08:07:36;2.40;;;2.23;;
16731;SDS011;8484;50.904;9.192;2023-02-26T08:10:03;2.90;;;2.40;;
16731;SDS011;8484;50.904;9.192;2023-02-26T08:12:31;2.50;;;2.30;;
16731;SDS011;8484;50.904;9.192;2023-02-26T08:14:58;3.80;;;2.50;;
16731;SDS011;8484;50.904;9.192;2023-02-26T08:17:25;3.33;;;2.53;;
16731;SDS011;8484;50.904;9.192;2023-02-26T08:19:53;2.30;;;2.20;;
16731;SDS011;8484;50.904;9.192;2023-02-26T08:22:20;2.47;;;2.27;;
16731;SDS011;8484;50.904;9.192;2023-02-26T08:24:47;2.23;;;2.10;;
16731;SDS011;8484;50.904;9.192;2023-02-26T08:27:15;2.80;;;2.10;;
16731;SDS011;8484;50.904;9.192;2023-02-26T08:29:43;2.03;;;1.90;;
16731;SDS011;8484;50.904;9.192;2023-02-26T08:32:10;2.10;;;2.00;;
16731;SDS011;8484;50.904;9.192;2023-02-26T08:34:37;2.50;;;2.30;;
16731;SDS011;8484;50.904;9.192;2023-02-26T08:37:05;2.40;;;2.30;;
16731;SDS011;8484;50.904;9.192;2023-02-26T08:39:35;3.40;;;2.73;;
16731;SDS011;8484;50.904;9.192;2023-02-26T08:42:03;3.00;;;2.80;;
16731;SDS011;8484;50.904;9.192;2023-02-26T08:44:30;4.23;;;3.00;;
16731;SDS011;8484;50.904;9.192;2023-02-26T08:46:58;3.23;;;3.03;;
16731;SDS011;8484;50.904;9.192;2023-02-26T08:49:24;3.43;;;3.13;;
16731;SDS011;8484;50.904;9.192;2023-02-26T08:51:51;3.50;;;3.20;;
16731;SDS011;8484;50.904;9.192;2023-02-26T08:54:20;3.83;;;3.43;;
16731;SDS011;8484;50.904;9.192;2023-02-26T08:56:46;3.90;;;3.60;;
16731;SDS011;8484;50.904;9.192;2023-02-26T08:59:13;3.73;;;3.43;;
16731;SDS011;8484;50.904;9.192;2023-02-26T09:01:40;3.93;;;3.50;;
16731;SDS011;8484;50.904;9.192;2023-02-26T09:04:07;3.10;;;2.90;;
16731;SDS011;8484;50.904;9.192;2023-02-26T09:06:34;3.13;;;2.83;;
16731;SDS011;8484;50.904;9.192;2023-02-26T09:09:01;3.10;;;2.90;;
16731;SDS011;8484;50.904;9.192;2023-02-26T09:11:29;6.30;;;3.70;;
16731;SDS011;8484;50.904;9.192;2023-02-26T09:13:56;4.23;;;3.67;;
16731;SDS011;8484;50.904;9.192;2023-02-26T09:16:24;3.10;;;2.90;;
16731;SDS011;8484;50.904;9.192;2023-02-26T09:18:51;4.17;;;3.40;;
16731;SDS011;8484;50.904;9.192;2023-02-26T09:21:18;2.97;;;2.77;;
16731;SDS011;8484;50.904;9.192;2023-02-26T09:23:45;2.80;;;2.60;;
16731;SDS011;8484;50.904;9.192;2023-02-26T09:26:12;2.60;;;2.50;;
16731;SDS011;8484;50.904;9.192;2023-02-26T09:28:40;3.30;;;3.00;;
16731;SDS011;8484;50.904;9.192;2023-02-26T09:31:07;2.80;;;2.37;;
16731;SDS011;8484;50.904;9.192;2023-02-26T09:33:34;3.23;;;2.93;;
16731;SDS011;8484;50.904;9.192;2023-02-26T09:36:01;3.00;;;2.80;;
16731;SDS011;8484;50.904;9.192;2023-02-26T09:38:28;2.37;;;2.27;;
16731;SDS011;8484;50.904;9.192;2023-02-26T09:40:57;2.57;;;2.47;;
16731;SDS011;8484;50.904;9.192;2023-02-26T09:43:29;3.20;;;3.00;;
16731;SDS011;8484;50.904;9.192;2023-02-26T09:46:09;3.10;;;2.90;;
16731;SDS011;8484;50.904;9.192;2023-02-26T09:48:39;2.60;;;2.00;;
16731;SDS011;8484;50.904;9.192;2023-02-26T09:51:09;2.13;;;2.00;;
16731;SDS011;8484;50.904;9.192;2023-02-26T09:53:38;2.43;;;2.10;;
16731;SDS011;8484;50.904;9.192;2023-02-26T09:56:10;2.30;;;2.10;;
16731;SDS011;8484;50.904;9.192;2023-02-26T09:58:41;4.83;;;2.93;;
16731;SDS011;8484;50.904;9.192;2023-02-26T10:01:12;2.67;;;2.57;;
16731;SDS011;8484;50.904;9.192;2023-02-26T10:03:49;2.67;;;2.57;;
16731;SDS011;8484;50.904;9.192;2023-02-26T10:06:23;2.80;;;2.60;;
16731;SDS011;8484;50.904;9.192;2023-02-26T10:08:57;2.20;;;2.00;;
16731;SDS011;8484;50.904;9.192;2023-02-26T10:11:34;3.30;;;2.00;;
16731;SDS011;8484;50.904;9.192;2023-02-26T10:14:09;2.30;;;2.17;;
16731;SDS011;8484;50.904;9.192;2023-02-26T10:16:42;2.50;;;2.30;;
16731;SDS011;8484;50.904;9.192;2023-02-26T10:19:15;2.77;;;2.57;;
16731;SDS011;8484;50.904;9.192;2023-02-26T10:21:46;4.33;;;2.80;;
16731;SDS011;8484;50.904;9.192;2023-02-26T10:24:17;3.03;;;2.83;;
16731;SDS011;8484;50.904;9.192;2023-02-26T10:26:49;3.37;;;3.17;;
16731;SDS011;8484;50.904;9.192;2023-02-26T10:29:20;2.33;;;2.10;;
16731;SDS011;8484;50.904;9.192;2023-02-26T10:31:58;2.30;;;2.10;;
16731;SDS011;8484;50.904;9.192;2023-02-26T10:34:33;2.27;;;2.17;;
16731;SDS011;8484;50.904;9.192;2023-02-26T10:37:07;2.00;;;1.90;;
16731;SDS011;8484;50.904;9.192;2023-02-26T10:39:43;4.63;;;2.20;;
16731;SDS011;8484;50.904;9.192;2023-02-26T10:42:16;2.00;;;1.90;;
16731;SDS011;8484;50.904;9.192;2023-02-26T10:44:48;2.80;;;1.90;;
16731;SDS011;8484;50.904;9.192;2023-02-26T10:47:27;2.33;;;2.17;;
16731;SDS011;8484;50.904;9.192;2023-02-26T10:50:00;1.77;;;1.67;;
16731;SDS011;8484;50.904;9.192;2023-02-26T10:52:30;1.93;;;1.83;;
16731;SDS011;8484;50.904;9.192;2023-02-26T10:58:02;1.80;;;1.70;;
16731;SDS011;8484;50.904;9.192;2023-02-26T11:00:30;2.10;;;1.90;;
16731;SDS011;8484;50.904;9.192;2023-02-26T11:03:01;2.50;;;2.30;;
16731;SDS011;8484;50.904;9.192;2023-02-26T11:05:30;2.40;;;2.20;;
16731;SDS011;8484;50.904;9.192;2023-02-26T11:08:00;1.80;;;1.70;;
16731;SDS011;8484;50.904;9.192;2023-02-26T11:10:38;2.20;;;2.10;;
16731;SDS011;8484;50.904;9.192;2023-02-26T11:13:07;2.33;;;2.10;;
16731;SDS011;8484;50.904;9.192;2023-02-26T11:15:35;3.47;;;2.40;;
16731;SDS011;8484;50.904;9.192;2023-02-26T11:18:03;2.40;;;2.20;;
16731;SDS011;8484;50.904;9.192;2023-02-26T11:20:33;2.53;;;2.10;;
16731;SDS011;8484;50.904;9.192;2023-02-26T11:23:03;2.20;;;2.10;;
16731;SDS011;8484;50.904;9.192;2023-02-26T11:25:32;3.00;;;2.70;;
16731;SDS011;8484;50.904;9.192;2023-02-26T11:28:01;2.10;;;2.00;;
16731;SDS011;8484;50.904;9.192;2023-02-26T11:30:31;2.20;;;2.10;;
16731;SDS011;8484;50.904;9.192;2023-02-26T11:33:05;2.67;;;2.47;;
16731;SDS011;8484;50.904;9.192;2023-02-26T11:35:41;2.60;;;2.40;;
16731;SDS011;8484;50.904;9.192;2023-02-26T11:38:09;3.23;;;2.93;;
16731;SDS011;8484;50.904;9.192;2023-02-26T11:40:44;3.43;;;2.97;;
16731;SDS011;8484;50.904;9.192;2023-02-26T11:43:14;3.33;;;3.03;;
16731;SDS011;8484;50.904;9.192;2023-02-26T11:45:44;3.03;;;2.83;;
16731;SDS011;8484;50.904;9.192;2023-02-26T11:48:18;3.33;;;3.03;;
16731;SDS011;8484;50.904;9.192;2023-02-26T11:50:48;3.27;;;2.70;;
16731;SDS011;8484;50.904;9.192;2023-02-26T11:53:25;2.67;;;2.47;;
16731;SDS011;8484;50.904;9.192;2023-02-26T11:55:58;2.47;;;2.37;;
16731;SDS011;8484;50.904;9.192;2023-02-26T11:58:28;2.53;;;2.43;;
16731;SDS011;8484;50.904;9.192;2023-02-26T12:01:00;2.83;;;2.63;;
16731;SDS011;8484;50.904;9.192;2023-02-26T12:03:31;2.73;;;2.33;;
16731;SDS011;8484;50.904;9.192;2023-02-26T12:05:58;2.37;;;2.27;;
16731;SDS011;8484;50.904;9.192;2023-02-26T12:08:29;2.43;;;2.23;;
16731;SDS011;8484;50.904;9.192;2023-02-26T12:11:09;2.90;;;2.70;;
16731;SDS011;8484;50.904;9.192;2023-02-26T12:14:12;3.17;;;2.97;;
16731;SDS011;8484;50.904;9.192;2023-02-26T12:16:52;2.73;;;2.53;;
16731;SDS011;8484;50.904;9.192;2023-02-26T12:19:34;2.73;;;2.50;;
16731;SDS011;8484;50.904;9.192;2023-02-26T12:22:17;2.40;;;2.20;;
16731;SDS011;8484;50.904;9.192;2023-02-26T12:28:06;3.13;;;2.50;;
16731;SDS011;8484;50.904;9.192;2023-02-26T12:30:57;2.20;;;2.00;;
16731;SDS011;8484;50.904;9.192;2023-02-26T12:33:42;2.33;;;2.13;;
16731;SDS011;8484;50.904;9.192;2023-02-26T12:36:24;1.90;;;1.80;;
16731;SDS011;8484;50.904;9.192;2023-02-26T12:39:03;3.00;;;2.03;;
16731;SDS011;8484;50.904;9.192;2023-02-26T12:44:40;2.40;;;2.20;;
16731;SDS011;8484;50.904;9.192;2023-02-26T12:47:21;2.13;;;1.90;;
16731;SDS011;8484;50.904;9.192;2023-02-26T12:50:00;2.47;;;2.20;;
16731;SDS011;8484;50.904;9.192;2023-02-26T12:55:40;2.87;;;2.17;;
16731;SDS011;8484;50.904;9.192;2023-02-26T12:58:24;2.00;;;1.90;;
16731;SDS011;8484;50.904;9.192;2023-02-26T13:01:23;2.00;;;1.90;;
16731;SDS011;8484;50.904;9.192;2023-02-26T13:04:25;2.10;;;1.90;;
16731;SDS011;8484;50.904;9.192;2023-02-26T13:07:22;2.00;;;1.90;;
16731;SDS011;8484;50.904;9.192;2023-02-26T13:10:04;2.23;;;2.10;;
16731;SDS011;8484;50.904;9.192;2023-02-26T13:12:41;2.77;;;2.23;;
16731;SDS011;8484;50.904;9.192;2023-02-26T13:15:19;3.00;;;2.10;;
16731;SDS011;8484;50.904;9.192;2023-02-26T13:17:59;2.33;;;2.13;;
16731;SDS011;8484;50.904;9.192;2023-02-26T13:20:30;2.50;;;2.40;;
16731;SDS011;8484;50.904;9.192;2023-02-26T13:23:01;2.53;;;2.43;;
16731;SDS011;8484;50.904;9.192;2023-02-26T13:25:35;2.67;;;2.53;;
16731;SDS011;8484;50.904;9.192;2023-02-26T13:28:09;3.03;;;2.87;;
16731;SDS011;8484;50.904;9.192;2023-02-26T13:30:43;3.07;;;2.87;;
16731;SDS011;8484;50.904;9.192;2023-02-26T13:33:15;3.20;;;2.90;;
16731;SDS011;8484;50.904;9.192;2023-02-26T13:35:46;3.90;;;3.60;;
16731;SDS011;8484;50.904;9.192;2023-02-26T13:38:27;6.40;;;5.33;;
16731;SDS011;8484;50.904;9.192;2023-02-26T13:41:06;3.87;;;3.57;;
16731;SDS011;8484;50.904;9.192;2023-02-26T13:43:41;2.83;;;2.63;;
16731;SDS011;8484;50.904;9.192;2023-02-26T13:46:21;2.90;;;2.67;;
16731;SDS011;8484;50.904;9.192;2023-02-26T13:48:57;2.73;;;2.53;;
16731;SDS011;8484;50.904;9.192;2023-02-26T13:51:32;3.17;;;2.97;;
16731;SDS011;8484;50.904;9.192;2023-02-26T13:54:02;2.63;;;2.53;;
16731;SDS011;8484;50.904;9.192;2023-02-26T13:56:49;2.90;;;2.70;;
16731;SDS011;8484;50.904;9.192;2023-02-26T14:02:30;2.87;;;2.67;;
16731;SDS011;8484;50.904;9.192;2023-02-26T14:05:06;2.90;;;2.70;;
16731;SDS011;8484;50.904;9.192;2023-02-26T14:07:53;2.80;;;2.70;;
16731;SDS011;8484;50.904;9.192;2023-02-26T14:10:42;2.90;;;2.63;;
16731;SDS011;8484;50.904;9.192;2023-02-26T14:13:13;3.07;;;2.87;;
16731;SDS011;8484;50.904;9.192;2023-02-26T14:15:47;2.87;;;2.67;;
16731;SDS011;8484;50.904;9.192;2023-02-26T14:18:19;2.60;;;2.47;;
16731;SDS011;8484;50.904;9.192;2023-02-26T14:20:52;2.33;;;2.23;;
16731;SDS011;8484;50.904;9.192;2023-02-26T14:23:58;3.33;;;2.00;;
16731;SDS011;8484;50.904;9.192;2023-02-26T14:26:27;2.23;;;2.10;;
16731;SDS011;8484;50.904;9.192;2023-02-26T14:29:08;2.40;;;2.20;;
16731;SDS011;8484;50.904;9.192;2023-02-26T14:31:54;2.10;;;1.93;;
16731;SDS011;8484;50.904;9.192;2023-02-26T14:34:30;2.37;;;2.27;;
16731;SDS011;8484;50.904;9.192;2023-02-26T14:37:01;2.50;;;2.40;;
16731;SDS011;8484;50.904;9.192;2023-02-26T14:39:33;2.53;;;2.43;;
16731;SDS011;8484;50.904;9.192;2023-02-26T14:42:03;2.37;;;2.27;;
16731;SDS011;8484;50.904;9.192;2023-02-26T14:44:35;2.20;;;2.10;;
16731;SDS011;8484;50.904;9.192;2023-02-26T14:47:05;2.00;;;1.90;;
16731;SDS011;8484;50.904;9.192;2023-02-26T14:49:33;2.20;;;2.10;;
16731;SDS011;8484;50.904;9.192;2023-02-26T14:58:08;2.83;;;2.63;;
16731;SDS011;8484;50.904;9.192;2023-02-26T15:00:58;2.93;;;2.73;;
16731;SDS011;8484;50.904;9.192;2023-02-26T15:03:38;2.87;;;2.67;;
16731;SDS011;8484;50.904;9.192;2023-02-26T15:06:38;2.47;;;2.27;;
16731;SDS011;8484;50.904;9.192;2023-02-26T15:09:25;3.50;;;2.50;;
16731;SDS011;8484;50.904;9.192;2023-02-26T15:12:05;2.80;;;2.60;;
16731;SDS011;8484;50.904;9.192;2023-02-26T15:17:43;2.93;;;2.73;;
16731;SDS011;8484;50.904;9.192;2023-02-26T15:20:19;2.93;;;2.73;;
16731;SDS011;8484;50.904;9.192;2023-02-26T15:22:56;3.73;;;3.43;;
16731;SDS011;8484;50.904;9.192;2023-02-26T15:25:33;3.50;;;3.30;;
16731;SDS011;8484;50.904;9.192;2023-02-26T15:28:02;3.50;;;3.20;;
16731;SDS011;8484;50.904;9.192;2023-02-26T15:30:30;3.30;;;3.10;;
16731;SDS011;8484;50.904;9.192;2023-02-26T15:33:03;3.53;;;3.33;;
16731;SDS011;8484;50.904;9.192;2023-02-26T15:35:32;3.37;;;3.13;;
16731;SDS011;8484;50.904;9.192;2023-02-26T15:38:00;3.77;;;3.50;;
16731;SDS011;8484;50.904;9.192;2023-02-26T15:40:29;3.83;;;3.53;;
16731;SDS011;8484;50.904;9.192;2023-02-26T15:42:58;3.93;;;3.63;;
16731;SDS011;8484;50.904;9.192;2023-02-26T15:45:27;4.40;;;4.00;;
16731;SDS011;8484;50.904;9.192;2023-02-26T15:48:03;4.80;;;4.30;;
16731;SDS011;8484;50.904;9.192;2023-02-26T15:50:33;6.27;;;5.30;;